Time;durP1;ratioP1;P1;durP2;ratioP2;P2;SDS_P1;SDS_P2;PMS_P1;PMS_P2;Temp;Humidity;BMP_temperature;BMP_pressure;BME280_temperature;BME280_humidity;BME280_pressure;Samples;Min_cycle;Max_cycle;Signal;HPM_P1;HPM_P2
2022/09/05 07:19:04;;;;;;;6.84;2.42;;;;;;;22.49;58.74;97052.00;4239372;27;20394;-63
2022/09/05 07:20:25;;;;;;;19.73;2.90;;;;;;;22.86;57.34;97047.94;2067620;28;1224774;-63
2022/09/05 07:21:36;;;;;;;9.60;2.67;;;;;;;23.19;57.05;97055.78;2111980;28;20581;-63
2022/09/05 07:22:48;;;;;;;5.55;2.50;;;;;;;23.37;56.67;97045.28;2117295;27;20218;-64
2022/09/05 07:24:05;;;;;;;5.63;2.15;;;;;;;23.45;55.67;97050.72;2120192;28;20194;-63
2022/09/05 07:25:17;;;;;;;3.25;2.10;;;;;;;23.05;57.29;97060.47;2119498;28;20193;-63
2022/09/05 07:26:21;;;;;;;4.30;2.03;;;;;;;23.31;56.57;97057.31;2120059;28;20197;-63
2022/09/05 07:55:25;;;;;;;4.43;2.08;;;;;;;24.45;53.05;97060.19;2074995;27;1231420;-65
2022/09/05 07:56:53;;;;;;;2.58;1.55;;;;;;;24.83;51.75;97044.16;2107642;28;20199;-65
2022/09/05 07:58:18;;;;;;;3.05;1.55;;;;;;;24.71;51.90;97059.56;2107004;28;20276;-65
2022/09/05 08:13:41;;;;;;;4.43;1.63;;;;;;;25.09;50.45;97063.00;2098351;27;1235629;-64
2022/09/05 08:15:17;;;;;;;2.22;1.60;;;;;;;24.71;51.58;97058.69;2108045;28;20194;-64
2022/09/05 08:16:23;;;;;;;4.32;1.95;;;;;;;24.56;51.62;97053.81;2102873;28;20210;-64
2022/09/05 08:17:25;;;;;;;6.05;2.50;;;;;;;24.77;51.39;97055.44;2090087;28;20802;-64
2022/09/05 08:18:35;;;;;;;2.53;1.60;;;;;;;25.43;50.27;97059.72;2085489;28;20200;-64
2022/09/05 08:19:37;;;;;;;3.33;1.80;;;;;;;25.22;50.11;97061.81;2083477;28;20328;-64
2022/09/05 08:20:44;;;;;;;5.47;2.13;;;;;;;25.11;50.74;97060.19;2082793;28;20207;-64
2022/09/05 08:21:50;;;;;;;3.03;1.92;;;;;;;25.49;50.05;97057.44;2082872;28;20200;-64
2022/09/05 08:23:06;;;;;;;6.15;1.98;;;;;;;26.19;48.74;97057.50;2083957;28;20224;-64
2022/09/05 08:24:24;;;;;;;4.80;2.17;;;;;;;26.20;48.43;97059.19;2085410;28;20199;-64
2022/09/05 08:25:37;;;;;;;4.03;2.00;;;;;;;26.32;47.74;97050.91;2085936;28;20365;-62
2022/09/05 08:27:12;;;;;;;2.55;1.98;;;;;;;26.28;48.01;97061.09;2079427;28;20201;-62
2022/09/05 08:28:25;;;;;;;3.03;2.10;;;;;;;25.89;48.60;97040.91;2080616;28;20197;-62
2022/09/05 08:29:44;;;;;;;4.47;1.80;;;;;;;26.15;48.84;97049.97;2082353;28;20205;-62
2022/09/05 08:31:20;;;;;;;3.53;1.75;;;;;;;26.69;48.71;97052.44;2081432;28;20680;-62
2022/09/05 08:32:21;;;;;;;2.72;1.30;;;;;;;26.82;48.08;97049.38;2083042;28;20369;-62
2022/09/05 08:33:31;;;;;;;2.10;1.55;;;;;;;26.78;47.22;97050.66;2084747;28;20208;-60
2022/09/05 08:34:53;;;;;;;4.35;1.60;;;;;;;27.13;47.19;97056.84;2082643;28;20193;-60
2022/09/05 08:36:00;;;;;;;4.55;1.90;;;;;;;27.30;46.73;97055.03;2080170;28;20200;-60
2022/09/05 08:55:31;;;;;;;3.56;1.58;;;;;;;27.29;45.49;97054.19;4192675;27;1230341;-62
2022/09/05 08:56:46;;;;;;;3.97;1.85;;;;;;;27.56;44.95;97054.94;2110272;28;20210;-62
2022/09/05 08:57:59;;;;;;;2.88;1.90;;;;;;;27.43;44.89;97055.44;2095013;28;20257;-62
2022/09/05 08:59:16;;;;;;;2.53;1.70;;;;;;;27.26;45.51;97056.38;2090001;28;20202;-62
2022/09/05 09:00:36;;;;;;;3.13;1.40;;;;;;;26.91;45.25;97051.06;2087512;28;20643;-62
2022/09/05 09:01:59;;;;;;;2.58;1.75;;;;;;;26.98;44.77;97056.63;2090105;28;20200;-62
2022/09/05 09:03:36;;;;;;;3.97;1.60;;;;;;;26.50;45.62;97056.19;2088470;28;20218;-62
2022/09/05 09:04:45;;;;;;;2.10;1.40;;;;;;;26.85;45.29;97057.91;2090135;28;20650;-63
2022/09/05 09:06:10;;;;;;;6.57;1.85;;;;;;;27.45;44.09;97058.78;2087573;28;20203;-63
2022/09/05 09:07:54;;;;;;;2.40;1.50;;;;;;;27.44;43.23;97057.13;2091161;28;22475;-63
2022/09/05 09:23:21;;;;;;;2.23;1.40;;;;;;;27.17;42.95;97039.41;2058773;27;1240466;-63
2022/09/05 09:24:57;;;;;;;4.18;1.60;;;;;;;26.34;44.68;97036.38;2093745;28;21626;-64
2022/09/05 09:26:21;;;;;;;1.80;1.40;;;;;;;27.21;43.60;97030.03;2095109;28;20229;-64
2022/09/05 09:27:47;;;;;;;2.65;1.77;;;;;;;27.45;42.99;97037.34;2094271;28;20869;-64
2022/09/05 09:29:12;;;;;;;2.78;1.85;;;;;;;27.45;43.14;97037.34;2094338;28;20226;-64
2022/09/05 09:37:00;;;;;;;6.00;1.30;;;;;;;28.06;40.55;97042.41;2094343;28;20176;-64
2022/09/05 09:38:34;;;;;;;5.53;1.67;;;;;;;28.05;40.79;97038.06;2095147;28;20203;-64
2022/09/05 09:39:54;;;;;;;3.05;1.65;;;;;;;28.16;40.91;97036.84;2094868;28;20769;-65
2022/09/05 09:41:17;;;;;;;2.60;1.50;;;;;;;28.40;40.73;97044.00;2094524;28;20195;-64
2022/09/05 09:42:18;;;;;;;4.40;1.40;;;;;;;28.26;41.13;97031.31;2094324;28;20269;-65
2022/09/05 09:43:46;;;;;;;5.50;1.85;;;;;;;28.13;41.13;97040.72;2095135;28;20269;-64
2022/09/05 10:00:50;;;;;;;2.90;1.60;;;;;;;29.21;37.99;97026.94;2091158;28;20561;-63
2022/09/05 10:02:30;;;;;;;3.53;1.90;;;;;;;29.41;37.21;97033.56;2082378;28;20197;-62
2022/09/05 10:04:00;;;;;;;3.50;1.80;;;;;;;28.66;38.37;97016.94;2069449;28;20232;-63
2022/09/05 10:05:49;;;;;;;2.22;1.42;;;;;;;28.93;38.39;97036.31;2070005;28;20209;-63
2022/09/05 10:07:31;;;;;;;4.80;1.70;;;;;;;30.21;37.17;97036.78;2068676;28;20205;-65
2022/09/05 10:09:05;;;;;;;5.82;1.40;;;;;;;30.22;36.60;97041.16;2070538;28;20204;-65
2022/09/05 10:10:38;;;;;;;3.58;1.60;;;;;;;30.06;36.51;97039.44;2070363;28;20717;-65
2022/09/05 10:12:08;;;;;;;5.13;1.50;;;;;;;30.49;36.91;97032.66;2070232;28;20326;-65
2022/09/05 10:13:41;;;;;;;3.58;1.70;;;;;;;30.45;36.23;97033.00;2070155;28;20244;-65
2022/09/05 10:15:15;;;;;;;2.00;1.40;;;;;;;29.69;36.94;97027.63;2070590;28;20206;-63
2022/09/05 10:17:10;;;;;;;4.55;1.73;;;;;;;29.22;38.27;97025.94;2069903;28;20228;-63
2022/09/05 10:18:20;;;;;;;5.30;1.58;;;;;;;29.77;37.79;97018.66;2069423;28;20217;-63
2022/09/05 10:19:30;;;;;;;3.10;1.35;;;;;;;29.61;38.30;97027.69;2070399;28;20197;-64
2022/09/05 10:21:17;;;;;;;2.53;1.30;;;;;;;29.60;38.00;97013.41;2070428;28;20205;-60
2022/09/05 10:22:30;;;;;;;3.70;1.80;;;;;;;29.98;37.63;97023.38;2069422;28;20529;-60
2022/09/05 10:23:52;;;;;;;5.77;2.03;;;;;;;29.96;38.19;97018.16;2069529;28;20193;-59
2022/09/05 10:25:16;;;;;;;5.57;1.48;;;;;;;29.80;38.04;97013.75;2069794;28;21103;-60
2022/09/05 10:26:38;;;;;;;9.80;1.63;;;;;;;30.96;36.25;97017.94;2069881;28;20244;-60
2022/09/05 10:28:04;;;;;;;5.73;1.90;;;;;;;30.87;36.07;97014.53;2070194;28;20482;-59
2022/09/05 10:29:20;;;;;;;1.87;1.20;;;;;;;30.50;36.69;97008.25;2068695;28;20436;-60
2022/09/05 10:31:15;;;;;;;3.70;1.70;;;;;;;31.33;36.77;97007.19;2073635;28;20959;-62
2022/09/05 10:32:54;;;;;;;5.27;1.60;;;;;;;32.61;35.02;97000.94;2069344;28;20486;-61
2022/09/05 10:34:23;;;;;;;2.43;1.40;;;;;;;33.52;33.31;97000.69;2070342;28;20438;-60
2022/09/05 10:35:55;;;;;;;3.43;1.30;;;;;;;33.43;32.55;96999.19;2069960;28;20486;-60
2022/09/05 10:37:04;;;;;;;4.93;1.30;;;;;;;33.44;32.94;97002.75;2069982;28;20427;-64
2022/09/05 10:38:05;;;;;;;1.83;1.30;;;;;;;33.83;32.51;96995.75;2070496;28;20783;-64
2022/09/05 10:39:25;;;;;;;2.43;1.60;;;;;;;32.98;33.68;96988.88;2070389;28;21000;-64
2022/09/05 10:40:32;;;;;;;2.37;1.40;;;;;;;33.98;32.91;96988.22;2070540;28;20493;-60
2022/09/05 10:41:59;;;;;;;6.43;1.50;;;;;;;32.99;32.88;96981.56;2069890;28;20920;-60
2022/09/05 10:43:12;;;;;;;4.30;1.60;;;;;;;31.80;33.98;96997.69;2069973;28;20474;-60
2022/09/05 10:44:24;;;;;;;2.90;1.70;;;;;;;32.63;34.06;96997.00;2069987;28;21136;-60
2022/09/05 11:02:06;;;;;;;2.70;1.17;;;;;;;29.50;39.80;96988.59;2103312;27;20579;-61
2022/09/05 11:03:46;;;;;;;3.90;1.60;;;;;;;29.24;39.83;96978.16;2081556;28;20453;-61
2022/09/05 11:05:23;;;;;;;3.87;1.57;;;;;;;29.19;40.44;96984.06;2082373;28;20192;-61
2022/09/05 11:06:48;;;;;;;4.30;1.33;;;;;;;29.73;39.66;96990.44;2082717;28;20437;-61
2022/09/05 11:08:11;;;;;;;2.67;1.57;;;;;;;31.39;36.43;96993.75;2080895;28;20458;-62
2022/09/05 11:09:27;;;;;;;2.73;1.40;;;;;;;32.15;35.00;96988.81;2082104;28;20418;-62
2022/09/05 11:10:59;;;;;;;6.20;1.70;;;;;;;32.04;34.82;96985.63;2083014;28;20433;-61
2022/09/05 11:17:11;;;;;;;2.30;1.20;;;;;;;29.70;37.62;96982.72;2083276;28;20920;-64
2022/09/05 11:18:44;;;;;;;2.67;1.50;;;;;;;31.04;37.12;96984.66;2075971;28;20449;-65
2022/09/05 11:20:20;;;;;;;3.20;1.30;;;;;;;32.49;35.09;96982.59;2074526;28;20419;-64
2022/09/05 11:21:41;;;;;;;2.30;1.30;;;;;;;31.59;35.71;96979.63;2074762;28;20463;-63
2022/09/05 11:22:47;;;;;;;2.00;1.50;;;;;;;31.54;35.87;96982.06;2075454;28;20817;-64
2022/09/05 11:23:54;;;;;;;2.80;1.33;;;;;;;31.57;35.87;96979.81;2074482;28;20431;-64
2022/09/05 11:25:01;;;;;;;2.77;1.60;;;;;;;31.19;36.64;96985.47;2075321;28;20431;-63
2022/09/05 11:26:06;;;;;;;3.80;1.63;;;;;;;30.81;37.44;96982.09;2074214;28;20472;-62
2022/09/05 11:27:21;;;;;;;5.10;1.50;;;;;;;30.60;37.45;96970.22;2073385;28;20818;-63
2022/09/05 11:28:32;;;;;;;4.80;1.30;;;;;;;30.76;37.46;96961.09;2073844;28;20503;-63
2022/09/05 11:38:58;;;;;;;2.17;1.20;;;;;;;34.85;31.74;96991.81;2067777;27;1236111;-62
2022/09/05 11:40:32;;;;;;;2.00;1.50;;;;;;;33.08;32.90;96979.53;2102447;28;20424;-62
2022/09/05 11:41:53;;;;;;;3.00;1.40;;;;;;;34.42;31.95;96982.34;2108466;28;20759;-63
2022/09/05 11:43:28;;;;;;;5.10;1.67;;;;;;;35.09;31.09;96979.41;2090481;28;20445;-63
2022/09/05 11:44:45;;;;;;;3.83;1.80;;;;;;;35.67;30.55;96977.59;2091712;28;20459;-63
2022/09/05 11:46:06;;;;;;;4.43;1.77;;;;;;;36.16;30.07;96975.13;2092392;28;20930;-65
2022/09/05 11:47:52;;;;;;;2.13;1.20;;;;;;;33.10;32.31;96975.59;2088111;28;20457;-65
2022/09/05 11:49:12;;;;;;;2.53;1.40;;;;;;;33.53;32.52;96972.59;2083125;28;20422;-65
2022/09/05 11:50:39;;;;;;;2.90;1.20;;;;;;;35.01;31.16;96963.38;2081845;28;20430;-63
2022/09/05 11:52:06;;;;;;;4.63;1.40;;;;;;;34.50;31.56;96974.84;2082952;28;20429;-63
2022/09/05 11:53:28;;;;;;;16.93;2.30;;;;;;;34.46;32.46;96967.31;2090086;28;20440;-63
2022/09/05 11:55:08;;;;;;;12.60;2.43;;;;;;;35.48;30.50;96974.81;2090914;28;20435;-63
2022/09/05 11:56:40;;;;;;;3.47;1.43;;;;;;;36.08;29.40;96968.91;2088333;28;20425;-63
2022/09/05 11:58:13;;;;;;;3.07;1.50;;;;;;;35.95;29.79;96971.75;2089591;28;20585;-63
2022/09/05 12:11:30;;;;;;;4.17;1.73;;;;;;;32.18;33.37;96950.63;2092412;28;20406;-64
2022/09/05 12:12:45;;;;;;;3.30;1.50;;;;;;;31.31;34.54;96948.03;2088399;28;20453;-63
2022/09/05 12:14:29;;;;;;;3.20;1.37;;;;;;;31.25;35.09;96948.81;2089887;28;20443;-63
2022/09/05 12:15:36;;;;;;;2.57;1.53;;;;;;;31.46;35.65;96947.13;2090312;28;20478;-64
2022/09/05 12:17:03;;;;;;;52.27;43.10;;;;;;;31.37;36.08;96946.44;2089609;28;20436;-64
2022/09/05 12:18:42;;;;;;;98.07;74.33;;;;;;;31.16;36.53;96947.25;2082493;28;20469;-63
2022/09/05 12:19:58;;;;;;;10.93;3.70;;;;;;;30.77;36.85;96947.44;2084918;28;20513;-64
2022/09/05 12:21:23;;;;;;;8.73;4.27;;;;;;;30.82;37.01;96943.31;2084157;28;20440;-63
2022/09/05 12:22:33;;;;;;;2.10;1.40;;;;;;;30.44;37.30;96955.09;2087404;28;20564;-63
2022/09/05 12:23:41;;;;;;;2.43;1.57;;;;;;;30.41;37.58;96950.06;2083976;28;20461;-62
2022/09/05 12:25:32;;;;;;;3.80;1.60;;;;;;;30.48;37.97;96950.19;2090263;28;20908;-62
2022/09/05 12:27:02;;;;;;;3.10;1.20;;;;;;;30.26;37.51;96939.31;2090601;28;20428;-62
2022/09/05 12:28:46;;;;;;;2.70;1.50;;;;;;;30.28;37.79;96940.78;2091053;28;20448;-62
2022/09/05 12:30:12;;;;;;;12.17;1.90;;;;;;;30.51;37.80;96941.72;2089250;28;20432;-61
2022/09/05 12:31:29;;;;;;;2.57;1.60;;;;;;;31.67;35.70;96938.19;2091707;28;20436;-61
2022/09/05 12:32:56;;;;;;;5.03;1.73;;;;;;;31.48;36.46;96939.66;2090330;28;20457;-61
2022/09/05 12:34:52;;;;;;;3.63;1.50;;;;;;;31.60;36.01;96938.13;2089075;28;20434;-64
2022/09/05 12:36:34;;;;;;;8.33;1.67;;;;;;;31.45;36.08;96915.78;2089117;28;20433;-63
2022/09/05 12:38:20;;;;;;;1.70;1.37;;;;;;;31.24;36.96;96929.09;2092189;28;20976;-63
2022/09/05 12:39:49;;;;;;;4.90;1.43;;;;;;;31.21;36.10;96928.63;2098489;28;20990;-63
2022/09/05 12:41:24;;;;;;;3.93;1.10;;;;;;;31.15;36.04;96922.16;2098955;28;20417;-61
2022/09/05 12:42:55;;;;;;;2.23;1.60;;;;;;;31.14;36.12;96920.50;2097165;28;20869;-61
2022/09/05 12:44:43;;;;;;;4.80;1.20;;;;;;;30.91;36.64;96929.56;2089003;28;20432;-61
2022/09/05 12:46:07;;;;;;;2.43;1.27;;;;;;;30.64;37.53;96928.44;2063459;28;20433;-61
2022/09/05 12:47:28;;;;;;;2.67;1.47;;;;;;;30.40;38.60;96932.25;2098390;28;20990;-61
2022/09/05 12:48:39;;;;;;;4.23;1.87;;;;;;;30.42;36.63;96931.03;2099124;28;20851;-61
2022/09/05 12:50:10;;;;;;;2.40;1.20;;;;;;;30.54;37.29;96931.41;2096194;28;20425;-61
2022/09/05 12:51:21;;;;;;;7.63;1.70;;;;;;;30.26;37.42;96925.84;2091387;28;21162;-62
2022/09/05 12:52:48;;;;;;;6.63;1.83;;;;;;;31.14;37.31;96927.75;2090392;28;20465;-61
2022/09/05 12:53:55;;;;;;;3.83;1.70;;;;;;;31.38;36.99;96924.66;2092242;28;20827;-62
2022/09/05 12:55:21;;;;;;;2.97;1.67;;;;;;;31.89;35.62;96912.00;2091830;28;20436;-62
2022/09/05 12:56:49;;;;;;;4.50;1.73;;;;;;;32.10;34.71;96913.81;2091424;28;20425;-62
2022/09/05 13:08:26;;;;;;;10.50;4.00;;;;;;;32.66;34.70;96904.72;2093642;28;20577;-62
2022/09/05 13:09:35;;;;;;;3.07;1.73;;;;;;;33.23;33.41;96907.19;2086868;28;20796;-64
2022/09/05 13:10:57;;;;;;;3.40;1.60;;;;;;;33.44;32.97;96917.00;2086518;28;20441;-62
2022/09/05 13:12:26;;;;;;;8.07;2.43;;;;;;;34.05;32.79;96912.38;2080326;28;20590;-62
2022/09/05 13:13:52;;;;;;;2.63;1.40;;;;;;;34.33;30.85;96898.59;2070485;28;20424;-63
2022/09/05 13:15:23;;;;;;;4.23;1.80;;;;;;;33.76;31.18;96909.06;2069957;28;20442;-62
2022/09/05 13:16:28;;;;;;;3.73;1.63;;;;;;;33.07;31.75;96916.50;2069044;28;20424;-62
2022/09/05 13:24:11;;;;;;;6.17;1.30;;;;;;;32.51;32.15;96891.38;2070308;28;20486;-64
2022/09/05 13:25:25;;;;;;;4.43;1.50;;;;;;;30.45;34.96;96895.63;2070570;28;20429;-64
2022/09/05 13:26:52;;;;;;;4.70;1.80;;;;;;;30.86;34.87;96896.94;2070094;28;20431;-64
2022/09/05 13:28:01;;;;;;;4.00;1.50;;;;;;;32.19;33.23;96874.81;2070245;28;20478;-64
2022/09/05 13:36:04;;;;;;;3.73;1.40;;;;;;;33.23;30.72;96893.66;2078280;28;20386;-63
2022/09/05 13:37:29;;;;;;;2.27;1.50;;;;;;;32.87;31.77;96884.00;2078149;28;21043;-63
2022/09/05 13:39:09;;;;;;;4.13;1.40;;;;;;;33.02;31.48;96892.78;2078094;28;20859;-63
2022/09/05 13:40:18;;;;;;;3.00;1.60;;;;;;;33.16;31.75;96884.69;2077012;28;20433;-63
2022/09/05 13:48:30;;;;;;;3.03;1.60;;;;;;;33.77;30.79;96867.41;2077571;28;20545;-63
2022/09/05 13:49:58;;;;;;;3.37;1.40;;;;;;;33.01;31.53;96877.63;2077821;28;20426;-63
2022/09/05 13:51:26;;;;;;;7.90;1.70;;;;;;;31.18;33.68;96873.22;2078424;28;20430;-63
2022/09/05 13:52:38;;;;;;;4.20;1.60;;;;;;;32.28;32.24;96859.28;2078235;28;20461;-63
2022/09/05 13:53:52;;;;;;;3.53;1.30;;;;;;;32.35;32.62;96865.56;2077483;28;20462;-62
2022/09/05 13:55:21;;;;;;;11.93;1.70;;;;;;;31.89;32.31;96874.22;2078634;28;20785;-62
2022/09/05 13:56:31;;;;;;;4.03;1.40;;;;;;;31.29;33.84;96866.50;2078692;28;20437;-62
2022/09/05 13:57:48;;;;;;;4.00;1.27;;;;;;;32.93;32.03;96858.03;2078750;28;20957;-62
2022/09/05 13:58:56;;;;;;;5.20;1.50;;;;;;;33.75;31.13;96857.84;2077807;28;20512;-62
2022/09/05 14:00:42;;;;;;;5.57;1.30;;;;;;;34.54;29.61;96823.47;2077931;28;20426;-62
2022/09/05 14:01:52;;;;;;;5.03;1.57;;;;;;;34.59;29.91;96864.28;2049376;28;20444;-62
2022/09/05 14:03:32;;;;;;;3.60;1.40;;;;;;;34.75;28.92;96862.94;2077995;28;20453;-63
2022/09/05 14:05:12;;;;;;;4.00;1.37;;;;;;;34.47;30.02;96861.41;2077914;28;20573;-62
2022/09/05 14:06:41;;;;;;;1.90;1.40;;;;;;;35.71;29.23;96862.06;2078218;28;20454;-63
2022/09/05 14:08:42;;;;;;;3.50;1.70;;;;;;;35.15;29.43;96865.44;2076939;28;20462;-62
2022/09/05 14:09:45;;;;;;;3.37;1.60;;;;;;;35.27;29.49;96865.53;2052628;28;20440;-62
2022/09/05 14:11:01;;;;;;;3.77;1.60;;;;;;;34.12;30.23;96860.91;2053193;28;20847;-63
2022/09/05 14:12:26;;;;;;;3.10;1.10;;;;;;;34.61;30.15;96859.47;2059810;28;20440;-63
2022/09/05 14:14:09;;;;;;;7.53;1.47;;;;;;;33.94;30.72;96854.31;2051199;28;20425;-63
2022/09/05 14:15:36;;;;;;;6.83;2.13;;;;;;;33.66;31.36;96849.97;2057929;28;20447;-63
2022/09/05 14:22:02;;;;;;;2.17;1.20;;;;;;;35.71;28.25;96849.31;2054195;28;20400;-62
2022/09/05 14:23:12;;;;;;;5.20;1.40;;;;;;;35.69;28.76;96856.84;2055426;28;20444;-62
2022/09/05 14:24:23;;;;;;;6.37;1.80;;;;;;;36.05;27.87;96846.25;2054023;28;20831;-62
2022/09/05 14:25:35;;;;;;;4.10;1.70;;;;;;;33.93;30.52;96847.22;2055207;28;20437;-62
2022/09/05 14:27:04;;;;;;;2.40;1.50;;;;;;;32.74;31.86;96846.16;2055256;28;20417;-63
2022/09/05 14:28:13;;;;;;;2.60;1.60;;;;;;;31.28;34.08;96843.25;2054188;28;20465;-62
2022/09/05 14:29:39;;;;;;;3.13;1.70;;;;;;;32.93;31.96;96842.66;2055463;28;20429;-62
2022/09/05 14:31:04;;;;;;;3.83;2.03;;;;;;;33.77;30.48;96844.94;2054903;28;20484;-62
2022/09/05 14:32:36;;;;;;;9.10;2.23;;;;;;;32.40;32.66;96852.28;2055044;28;20457;-62
2022/09/05 14:40:54;;;;;;;2.30;1.60;;;;;;;31.59;34.80;96837.47;2054956;28;20904;-62
2022/09/05 14:42:33;;;;;;;4.93;1.40;;;;;;;31.12;34.91;96832.72;2054926;28;20433;-60
2022/09/05 14:43:46;;;;;;;4.67;1.40;;;;;;;31.05;36.06;96833.47;2054413;28;20451;-60
2022/09/05 14:45:19;;;;;;;1.97;1.50;;;;;;;30.70;35.59;96836.06;2065838;28;20442;-60
2022/09/05 14:46:48;;;;;;;7.63;1.90;;;;;;;30.61;35.41;96834.50;2072255;28;20573;-59
2022/09/05 14:48:06;;;;;;;2.30;1.40;;;;;;;30.60;35.73;96833.69;2067202;28;20455;-60
2022/09/05 14:49:24;;;;;;;3.27;1.30;;;;;;;30.26;36.44;96828.91;2073967;28;20434;-60
2022/09/05 14:50:48;;;;;;;2.83;1.70;;;;;;;30.20;37.05;96832.34;2072676;28;20426;-60
2022/09/05 14:51:54;;;;;;;3.67;1.50;;;;;;;30.54;36.26;96826.34;2072069;28;20449;-60
2022/09/05 14:53:16;;;;;;;5.57;1.60;;;;;;;30.57;36.20;96831.34;2069839;28;20442;-60
2022/09/05 14:54:39;;;;;;;5.53;1.47;;;;;;;31.36;34.43;96832.31;2072243;28;20438;-60
2022/09/05 14:56:11;;;;;;;3.40;1.40;;;;;;;31.96;33.64;96834.59;2071676;28;20435;-59
2022/09/05 15:15:44;;;;;;;25.37;12.93;;;;;;;34.85;30.58;96813.69;2070854;28;20701;-61
2022/09/05 15:17:04;;;;;;;17.93;12.10;;;;;;;34.60;30.24;96814.47;2071945;28;20431;-61
2022/09/05 15:18:21;;;;;;;3.30;1.50;;;;;;;34.24;30.35;96812.31;2072419;28;20451;-61
2022/09/05 15:20:06;;;;;;;5.77;1.30;;;;;;;34.08;31.04;96814.47;2072496;28;20536;-61
2022/09/05 15:27:54;;;;;;;5.70;1.90;;;;;;;32.59;33.23;96794.94;2054582;28;20504;-62
2022/09/05 15:29:11;;;;;;;2.70;1.60;;;;;;;32.59;33.86;96809.28;2054969;28;20457;-62
2022/09/05 15:30:18;;;;;;;4.90;1.40;;;;;;;32.58;33.68;96799.50;2055086;28;20937;-61
2022/09/05 15:31:23;;;;;;;7.07;1.83;;;;;;;32.33;34.02;96805.47;2054089;28;21431;-61
2022/09/05 15:32:27;;;;;;;4.50;1.33;;;;;;;32.35;33.93;96800.72;2054338;28;20456;-61
2022/09/05 15:33:30;;;;;;;1.60;1.20;;;;;;;32.39;34.00;96801.97;2052625;28;20448;-61
2022/09/05 15:34:32;;;;;;;1.30;1.17;;;;;;;32.15;34.88;96806.03;2054155;28;20932;-61
2022/09/05 15:35:38;;;;;;;5.67;1.60;;;;;;;32.21;33.87;96801.69;2054234;28;20433;-61
2022/09/05 15:36:39;;;;;;;2.93;1.40;;;;;;;32.05;33.94;96800.97;2054345;28;20436;-62
2022/09/05 15:37:41;;;;;;;2.70;1.23;;;;;;;31.77;34.84;96795.66;2044643;28;20462;-62
2022/09/05 15:38:47;;;;;;;1.93;1.53;;;;;;;31.62;35.36;96798.44;2044681;28;20429;-61
2022/09/05 15:40:00;;;;;;;7.67;1.87;;;;;;;31.45;35.36;96800.59;2054273;28;20473;-62
2022/09/05 15:41:08;;;;;;;6.33;1.40;;;;;;;31.14;36.65;96801.03;2051949;28;20482;-61
2022/09/05 15:42:17;;;;;;;13.47;2.33;;;;;;;30.95;36.78;96797.94;2051538;28;20452;-61
2022/09/05 15:43:23;;;;;;;6.17;1.70;;;;;;;30.69;37.24;96785.88;2054824;28;20494;-61
2022/09/05 15:44:28;;;;;;;4.50;1.70;;;;;;;30.70;37.78;96797.50;2051169;28;20425;-61
2022/09/05 15:45:36;;;;;;;2.30;1.57;;;;;;;30.52;37.31;96789.84;2049269;28;20436;-61
2022/09/05 16:36:29;;;;;;;5.63;1.90;;;;;;;28.60;41.26;96762.44;2067133;27;1240708;-61
2022/09/05 16:37:40;;;;;;;9.25;2.10;;;;;;;28.71;41.02;96768.44;2093787;28;20281;-63
2022/09/05 16:39:07;;;;;;;5.30;1.90;;;;;;;28.77;40.65;96770.41;2082309;28;20201;-63
2022/09/05 16:40:31;;;;;;;68.47;45.15;;;;;;;28.98;40.74;96767.88;2079234;28;20201;-63
2022/09/05 16:41:48;;;;;;;17.65;8.45;;;;;;;28.98;40.25;96767.06;2080018;28;20823;-63
2022/09/05 16:43:05;;;;;;;2.67;1.70;;;;;;;28.75;41.09;96772.47;2077001;28;20243;-63
2022/09/05 16:51:17;;;;;;;2.45;1.60;;;;;;;28.88;40.47;96728.84;2084077;28;20180;-62
2022/09/05 18:03:34;;;;;;;4.78;2.00;;;;;;;24.32;53.05;96747.50;2084284;28;20546;-63
